createdAt,value
2022-10-22T00:01:01.497Z,6.70
2022-10-22T00:03:29.263Z,7.10
2022-10-22T00:05:57.226Z,6.93
2022-10-22T00:08:25.078Z,7.10
2022-10-22T00:10:53.190Z,7.28
2022-10-22T00:13:21.487Z,5.50
2022-10-22T00:15:49.241Z,5.57
2022-10-22T00:18:17.373Z,6.25
2022-10-22T00:20:45.103Z,5.20
2022-10-22T00:23:12.922Z,5.60
2022-10-22T00:25:40.862Z,5.50
2022-10-22T00:28:08.549Z,5.13
2022-10-22T00:30:36.324Z,5.55
2022-10-22T00:33:04.068Z,4.80
2022-10-22T00:35:31.624Z,5.07
2022-10-22T00:37:59.323Z,4.47
2022-10-22T00:40:27.343Z,4.97
2022-10-22T00:42:55.556Z,3.92
2022-10-22T00:45:27.954Z,3.90
2022-10-22T00:48:07.836Z,4.25
2022-10-22T00:50:42.231Z,4.57
2022-10-22T00:53:15.492Z,3.85
2022-10-22T00:55:45.268Z,4.30
2022-10-22T00:58:14.001Z,3.67
2022-10-22T01:00:42.274Z,3.30
2022-10-22T01:03:10.228Z,3.40
2022-10-22T01:05:54.789Z,3.80
2022-10-22T01:08:32.957Z,3.43
2022-10-22T01:11:25.723Z,3.20
2022-10-22T01:14:31.927Z,3.22
2022-10-22T01:17:10.034Z,3.72
2022-10-22T01:20:02.858Z,2.47
2022-10-22T01:22:44.876Z,3.75
2022-10-22T01:25:35.359Z,2.60
2022-10-22T01:28:21.911Z,2.78
2022-10-22T01:30:51.620Z,2.97
2022-10-22T01:33:23.198Z,2.40
2022-10-22T01:35:51.534Z,3.47
2022-10-22T01:38:22.291Z,2.28
2022-10-22T01:40:51.213Z,3.10
2022-10-22T01:43:19.265Z,2.60
2022-10-22T01:45:50.753Z,2.40
2022-10-22T01:48:46.199Z,3.03
2022-10-22T01:54:15.168Z,2.42
2022-10-22T01:56:59.665Z,2.22
2022-10-22T01:59:27.377Z,2.17
2022-10-22T02:02:02.052Z,2.42
2022-10-22T02:04:42.005Z,2.20
2022-10-22T02:07:13.212Z,2.28
2022-10-22T02:09:41.521Z,2.78
2022-10-22T02:12:10.059Z,2.20
2022-10-22T02:14:40.341Z,2.40
2022-10-22T02:17:11.461Z,2.20
2022-10-22T02:20:12.340Z,2.10
2022-10-22T02:22:40.428Z,2.10
2022-10-22T02:25:09.286Z,2.03
2022-10-22T02:27:46.788Z,1.77
2022-10-22T02:30:24.227Z,1.95
2022-10-22T02:32:54.416Z,1.80
2022-10-22T02:35:27.317Z,2.08
2022-10-22T02:37:56.444Z,2.20
2022-10-22T02:40:25.182Z,1.80
2022-10-22T02:42:53.315Z,1.77
2022-10-22T02:45:21.903Z,1.90
2022-10-22T02:47:50.003Z,1.63
2022-10-22T02:50:17.900Z,1.60
2022-10-22T02:52:45.784Z,2.10
2022-10-22T02:55:13.594Z,1.80
2022-10-22T02:57:41.850Z,1.70
2022-10-22T03:00:10.878Z,1.58
2022-10-22T03:02:38.878Z,1.52
2022-10-22T03:05:07.093Z,1.67
2022-10-22T03:07:35.173Z,1.58
2022-10-22T03:10:03.208Z,1.45
2022-10-22T03:12:31.171Z,1.60
2022-10-22T03:14:58.973Z,1.42
2022-10-22T03:17:26.782Z,1.95
2022-10-22T03:19:54.490Z,1.40
2022-10-22T03:22:28.412Z,1.40
2022-10-22T03:25:01.140Z,1.60
2022-10-22T03:27:30.538Z,1.48
2022-10-22T03:29:58.878Z,1.23
2022-10-22T03:32:26.613Z,1.25
2022-10-22T03:34:54.464Z,1.50
2022-10-22T03:37:22.750Z,1.15
2022-10-22T03:39:50.575Z,1.40
2022-10-22T03:42:18.445Z,1.17
2022-10-22T03:44:49.147Z,1.15
2022-10-22T03:47:17.096Z,1.00
2022-10-22T03:49:44.857Z,1.45
2022-10-22T03:52:14.599Z,1.13
2022-10-22T03:54:42.907Z,1.35
2022-10-22T03:57:11.577Z,1.20
2022-10-22T03:59:46.816Z,1.13
2022-10-22T04:02:14.974Z,1.45
2022-10-22T04:04:42.828Z,1.10
2022-10-22T04:07:10.739Z,0.75
2022-10-22T04:09:38.592Z,1.30
2022-10-22T04:12:08.191Z,1.20
2022-10-22T04:14:36.233Z,1.00
2022-10-22T04:17:06.082Z,1.02
2022-10-22T04:19:34.208Z,1.15
2022-10-22T04:22:02.048Z,1.05
2022-10-22T04:24:32.171Z,1.10
2022-10-22T04:27:00.068Z,1.13
2022-10-22T04:29:27.940Z,0.93
2022-10-22T04:31:55.657Z,1.00
2022-10-22T04:34:23.514Z,1.00
2022-10-22T04:36:51.318Z,1.27
2022-10-22T04:39:19.036Z,1.05
2022-10-22T04:41:46.722Z,0.93
2022-10-22T04:44:16.858Z,1.17
2022-10-22T04:46:45.850Z,1.10
2022-10-22T04:49:13.610Z,0.88
2022-10-22T04:51:42.095Z,1.15
2022-10-22T04:54:09.898Z,1.10
2022-10-22T04:56:37.623Z,1.00
2022-10-22T04:59:07.703Z,1.23
2022-10-22T05:01:43.004Z,1.20
2022-10-22T05:04:16.882Z,0.90
2022-10-22T05:06:45.015Z,0.90
2022-10-22T05:09:15.868Z,0.80
2022-10-22T05:11:51.287Z,0.90
2022-10-22T05:14:24.741Z,1.00
2022-10-22T05:16:53.387Z,1.08
2022-10-22T05:19:32.376Z,0.90
2022-10-22T05:22:02.494Z,1.02
2022-10-22T05:24:31.315Z,1.25
2022-10-22T05:27:00.252Z,1.10
2022-10-22T05:29:28.539Z,0.82
2022-10-22T05:31:56.453Z,0.80
2022-10-22T05:34:24.374Z,0.82
2022-10-22T05:36:52.155Z,0.90
2022-10-22T05:39:19.978Z,1.00
2022-10-22T05:41:47.758Z,0.90
2022-10-22T05:44:15.678Z,0.90
2022-10-22T05:46:43.671Z,0.77
2022-10-22T05:49:17.437Z,0.90
2022-10-22T05:51:45.265Z,1.13
2022-10-22T05:54:20.822Z,3.15
2022-10-22T05:56:49.204Z,4.22
2022-10-22T05:59:17.155Z,4.72
2022-10-22T06:01:44.953Z,5.80
2022-10-22T06:04:14.126Z,5.80
2022-10-22T06:06:44.866Z,5.22
2022-10-22T06:09:21.183Z,6.55
2022-10-22T06:11:49.494Z,7.28
2022-10-22T06:14:18.272Z,6.40
2022-10-22T06:16:46.257Z,6.22
2022-10-22T06:19:16.337Z,6.07
2022-10-22T06:21:44.686Z,7.10
2022-10-22T06:24:13.176Z,6.60
2022-10-22T06:26:41.570Z,6.20
2022-10-22T06:29:09.788Z,6.25
2022-10-22T06:31:37.661Z,5.70
2022-10-22T06:34:06.933Z,4.13
2022-10-22T06:36:35.227Z,4.88
2022-10-22T06:39:03.716Z,5.15
2022-10-22T06:41:31.775Z,4.90
2022-10-22T06:44:00.264Z,5.30
2022-10-22T06:46:28.629Z,4.78
2022-10-22T06:49:01.568Z,5.72
2022-10-22T06:51:29.920Z,5.30
2022-10-22T06:53:58.593Z,4.63
2022-10-22T06:56:28.691Z,4.97
2022-10-22T06:58:57.713Z,5.20
2022-10-22T07:01:31.262Z,4.97
2022-10-22T07:03:59.702Z,5.20
2022-10-22T07:06:29.467Z,4.85
2022-10-22T07:08:58.570Z,4.47
2022-10-22T07:11:31.558Z,5.22
2022-10-22T07:14:00.330Z,4.40
2022-10-22T07:16:31.290Z,5.25
2022-10-22T07:19:01.562Z,5.00
2022-10-22T07:21:30.135Z,5.05
2022-10-22T07:23:59.315Z,5.63
2022-10-22T07:26:31.042Z,4.80
2022-10-22T07:28:59.975Z,4.93
2022-10-22T07:31:27.754Z,5.65
2022-10-22T07:33:55.917Z,5.13
2022-10-22T07:36:23.777Z,5.53
2022-10-22T07:38:56.325Z,5.60
2022-10-22T07:41:24.781Z,5.78
2022-10-22T07:43:52.889Z,5.13
2022-10-22T07:46:21.386Z,5.18
2022-10-22T07:48:49.439Z,5.18
2022-10-22T07:51:17.683Z,5.10
2022-10-22T07:53:45.540Z,5.70
2022-10-22T07:56:14.220Z,5.20
2022-10-22T07:58:42.121Z,5.55
2022-10-22T08:01:09.992Z,5.25
2022-10-22T08:03:38.065Z,5.88
2022-10-22T08:06:06.199Z,5.63
2022-10-22T08:08:34.957Z,5.53
2022-10-22T08:11:03.073Z,5.80
2022-10-22T08:13:30.998Z,5.55
2022-10-22T08:16:02.447Z,5.75
2022-10-22T08:18:31.059Z,4.95
2022-10-22T08:20:59.170Z,5.07
2022-10-22T08:23:28.753Z,4.68
2022-10-22T08:25:57.653Z,5.18
2022-10-22T08:28:25.986Z,5.30
2022-10-22T08:30:53.684Z,5.13
2022-10-22T08:33:21.692Z,5.18
2022-10-22T08:35:53.395Z,5.15
2022-10-22T08:38:21.419Z,4.05
2022-10-22T08:41:10.446Z,4.88
2022-10-22T08:44:01.360Z,5.30
2022-10-22T08:46:40.311Z,4.35
2022-10-22T08:49:15.302Z,3.88
2022-10-22T08:54:47.561Z,4.63
2022-10-22T08:57:39.535Z,4.95
2022-10-22T09:00:34.793Z,4.93
2022-10-22T09:03:08.654Z,5.07
2022-10-22T09:05:56.244Z,6.38
2022-10-22T09:08:24.538Z,6.25
2022-10-22T09:11:15.458Z,5.75
2022-10-22T09:13:45.527Z,6.57
2022-10-22T09:16:21.213Z,6.65
2022-10-22T09:19:12.279Z,5.47
2022-10-22T09:21:45.865Z,5.97
2022-10-22T09:24:23.815Z,6.45
2022-10-22T09:26:52.265Z,5.97
2022-10-22T09:29:24.860Z,4.60
2022-10-22T09:31:52.852Z,5.25
2022-10-22T09:34:23.841Z,4.90
2022-10-22T09:37:03.964Z,4.68
2022-10-22T09:39:40.598Z,4.15
2022-10-22T09:42:08.999Z,4.40
2022-10-22T09:44:37.918Z,4.03
2022-10-22T09:47:07.363Z,4.88
2022-10-22T09:49:36.518Z,4.13
2022-10-22T09:52:06.351Z,3.50
2022-10-22T09:54:40.803Z,4.30
2022-10-22T09:57:14.561Z,4.50
2022-10-22T09:59:44.131Z,3.95
2022-10-22T10:02:37.980Z,4.68
2022-10-22T10:05:08.140Z,3.93
2022-10-22T10:07:36.811Z,3.30
2022-10-22T10:10:32.606Z,3.60
2022-10-22T10:13:29.542Z,3.20
2022-10-22T10:16:23.876Z,3.17
2022-10-22T10:19:02.280Z,3.45
2022-10-22T10:21:39.166Z,2.85
2022-10-22T10:24:24.427Z,3.35
2022-10-22T10:30:02.802Z,3.25
2022-10-22T10:32:30.618Z,3.13
2022-10-22T10:35:13.429Z,2.70
2022-10-22T10:38:20.532Z,2.83
2022-10-22T10:41:31.372Z,2.90
2022-10-22T10:44:18.698Z,3.95
2022-10-22T10:46:54.105Z,3.83
2022-10-22T10:49:29.818Z,3.40
2022-10-22T10:52:03.655Z,3.03
2022-10-22T10:54:36.456Z,3.45
2022-10-22T10:57:12.416Z,3.00
2022-10-22T11:00:00.666Z,3.70
2022-10-22T11:02:37.321Z,3.20
2022-10-22T11:05:14.118Z,2.92
2022-10-22T11:07:57.340Z,3.40
2022-10-22T11:10:49.335Z,3.10
2022-10-22T11:13:29.712Z,2.72
2022-10-22T11:16:17.726Z,2.80
2022-10-22T11:19:46.134Z,2.55
2022-10-22T11:22:33.985Z,2.50
2022-10-22T11:25:35.789Z,2.75
2022-10-22T11:28:37.359Z,2.80
2022-10-22T11:31:09.700Z,2.17
2022-10-22T11:34:04.966Z,2.05
2022-10-22T11:36:38.451Z,2.60
2022-10-22T11:39:06.372Z,2.92
2022-10-22T11:41:35.829Z,1.90
2022-10-22T11:44:12.230Z,3.17
2022-10-22T11:46:46.141Z,2.45
2022-10-22T11:49:18.421Z,2.28
2022-10-22T11:51:47.461Z,2.03
2022-10-22T11:54:32.015Z,2.05
2022-10-22T11:57:24.590Z,1.97
2022-10-22T11:59:58.375Z,2.20
2022-10-22T12:02:29.072Z,2.90
2022-10-22T12:05:16.354Z,2.53
2022-10-22T12:07:59.750Z,2.50
2022-10-22T12:10:47.859Z,2.47
2022-10-22T12:13:24.898Z,2.40
2022-10-22T12:15:55.337Z,2.80
2022-10-22T12:18:28.392Z,1.88
2022-10-22T12:20:56.597Z,2.75
2022-10-22T12:23:32.252Z,2.92
2022-10-22T12:25:59.929Z,2.13
2022-10-22T12:28:27.841Z,2.28
2022-10-22T12:30:55.762Z,2.20
2022-10-22T12:33:25.748Z,2.50
2022-10-22T12:35:57.803Z,1.63
2022-10-22T12:38:26.217Z,2.70
2022-10-22T12:40:56.482Z,2.63
2022-10-22T12:43:30.077Z,2.45
2022-10-22T12:45:57.994Z,2.42
2022-10-22T12:48:33.773Z,2.90
2022-10-22T12:51:03.965Z,2.05
2022-10-22T12:53:37.954Z,2.40
2022-10-22T12:56:16.841Z,2.40
2022-10-22T12:58:57.263Z,2.33
2022-10-22T13:01:32.580Z,2.40
2022-10-22T13:04:35.651Z,2.42
2022-10-22T13:07:18.460Z,2.42
2022-10-22T13:09:59.710Z,1.52
2022-10-22T13:12:34.711Z,2.00
2022-10-22T13:15:35.637Z,2.17
2022-10-22T13:18:17.937Z,1.98
2022-10-22T13:21:02.138Z,2.30
2022-10-22T13:23:32.620Z,2.28
2022-10-22T13:26:17.036Z,2.78
2022-10-22T13:28:51.515Z,2.00
2022-10-22T13:31:21.910Z,1.65
2022-10-22T13:33:57.395Z,2.30
2022-10-22T13:36:25.519Z,2.20
2022-10-22T13:38:53.254Z,2.47
2022-10-22T13:41:28.621Z,1.92
2022-10-22T13:43:57.218Z,2.80
2022-10-22T13:46:26.222Z,1.98
2022-10-22T13:48:55.620Z,1.90
2022-10-22T13:51:27.791Z,2.22
2022-10-22T13:53:55.514Z,1.95
2022-10-22T13:56:24.218Z,2.00
2022-10-22T13:58:52.042Z,1.65
2022-10-22T14:01:25.745Z,1.85
2022-10-22T14:03:58.536Z,2.45
2022-10-22T14:06:29.978Z,2.70
2022-10-22T14:09:09.024Z,2.58
2022-10-22T14:11:36.935Z,2.65
2022-10-22T14:14:08.918Z,2.33
2022-10-22T14:16:38.219Z,2.85
2022-10-22T14:19:08.133Z,2.22
2022-10-22T14:21:37.955Z,2.95
2022-10-22T14:24:08.246Z,2.08
2022-10-22T14:26:38.551Z,2.47
2022-10-22T14:29:10.749Z,2.40
2022-10-22T14:31:44.652Z,2.53
2022-10-22T14:34:14.687Z,2.35
2022-10-22T14:36:45.306Z,2.40
2022-10-22T14:39:14.162Z,2.33
2022-10-22T14:41:42.612Z,2.30
2022-10-22T14:44:12.901Z,2.05
2022-10-22T14:46:42.841Z,2.67
2022-10-22T14:49:11.207Z,2.97
2022-10-22T14:51:39.351Z,2.30
2022-10-22T14:54:07.244Z,2.50
2022-10-22T14:59:08.376Z,2.40
2022-10-22T15:01:36.048Z,2.53
2022-10-22T15:04:03.832Z,2.95
2022-10-22T15:06:31.608Z,3.00
2022-10-22T15:08:59.298Z,2.40
2022-10-22T15:11:27.536Z,3.35
2022-10-22T15:13:55.399Z,2.28
2022-10-22T15:16:23.282Z,2.97
2022-10-22T15:18:53.220Z,2.13
2022-10-22T15:21:22.407Z,2.28
2022-10-22T15:23:50.512Z,2.42
2022-10-22T15:26:19.211Z,2.97
2022-10-22T15:28:47.107Z,3.35
2022-10-22T15:31:15.396Z,4.03
2022-10-22T15:33:44.050Z,2.40
2022-10-22T15:36:16.865Z,2.40
2022-10-22T15:38:46.690Z,2.80
2022-10-22T15:41:14.621Z,2.92
2022-10-22T15:43:42.517Z,2.90
2022-10-22T15:46:15.442Z,2.80
2022-10-22T15:48:43.820Z,2.88
2022-10-22T15:51:16.006Z,2.40
2022-10-22T15:53:44.374Z,2.72
2022-10-22T15:56:12.618Z,2.83
2022-10-22T15:58:40.287Z,2.70
2022-10-22T16:01:10.258Z,2.72
2022-10-22T16:03:38.208Z,3.28
2022-10-22T16:06:07.581Z,1.95
2022-10-22T16:08:35.571Z,2.03
2022-10-22T16:11:03.561Z,2.28
2022-10-22T16:13:31.694Z,3.22
2022-10-22T16:15:59.313Z,2.35
2022-10-22T16:18:27.101Z,2.35
2022-10-22T16:20:54.887Z,2.45
2022-10-22T16:23:22.842Z,3.05
2022-10-22T16:25:50.563Z,2.13
2022-10-22T16:28:18.339Z,2.70
2022-10-22T16:30:46.315Z,2.63
2022-10-22T16:33:13.961Z,2.80
2022-10-22T16:35:44.905Z,2.45
2022-10-22T16:38:12.723Z,2.88
2022-10-22T16:40:40.487Z,3.35
2022-10-22T16:43:08.133Z,2.33
2022-10-22T16:45:35.788Z,2.33
2022-10-22T16:48:03.758Z,2.72
2022-10-22T16:50:31.437Z,3.20
2022-10-22T16:52:59.210Z,2.20
2022-10-22T16:55:26.912Z,2.63
2022-10-22T16:57:54.850Z,3.03
2022-10-22T17:00:22.724Z,2.75
2022-10-22T17:02:54.611Z,3.58
2022-10-22T17:05:22.937Z,2.38
2022-10-22T17:07:50.903Z,2.90
2022-10-22T17:10:20.022Z,2.42
2022-10-22T17:12:48.487Z,3.30
2022-10-22T17:15:16.355Z,2.85
2022-10-22T17:17:48.490Z,2.70
2022-10-22T17:20:16.371Z,3.25
2022-10-22T17:22:44.326Z,3.83
2022-10-22T17:25:17.846Z,2.60
2022-10-22T17:27:46.121Z,3.85
2022-10-22T17:30:23.376Z,2.40
2022-10-22T17:32:54.971Z,2.33
2022-10-22T17:35:22.818Z,3.08
2022-10-22T17:37:50.834Z,1.92
2022-10-22T17:40:18.730Z,2.95
2022-10-22T17:42:46.515Z,2.38
2022-10-22T17:45:14.315Z,2.95
2022-10-22T17:47:42.144Z,2.90
2022-10-22T17:50:10.552Z,2.60
2022-10-22T17:52:38.491Z,2.20
2022-10-22T17:55:06.584Z,2.47
2022-10-22T17:57:34.320Z,3.17
2022-10-22T18:00:02.135Z,3.03
2022-10-22T18:02:33.005Z,3.00
2022-10-22T18:05:00.743Z,3.03
2022-10-22T18:07:28.362Z,2.60
2022-10-22T18:09:59.034Z,2.80
2022-10-22T18:12:26.716Z,2.30
2022-10-22T18:14:54.895Z,2.33
2022-10-22T18:17:22.585Z,3.03
2022-10-22T18:19:50.394Z,2.53
2022-10-22T18:22:18.211Z,2.80
2022-10-22T18:24:46.072Z,3.45
2022-10-22T18:27:13.763Z,3.75
2022-10-22T18:29:41.416Z,3.45
2022-10-22T18:32:13.172Z,2.75
2022-10-22T18:34:41.277Z,3.38
2022-10-22T18:37:09.202Z,3.00
2022-10-22T18:39:36.940Z,3.35
2022-10-22T18:42:07.382Z,3.15
2022-10-22T18:44:36.037Z,3.75
2022-10-22T18:47:04.063Z,4.05
2022-10-22T18:49:32.051Z,3.42
2022-10-22T18:51:59.789Z,3.40
2022-10-22T18:54:27.652Z,3.00
2022-10-22T18:57:00.516Z,2.95
2022-10-22T18:59:29.837Z,2.85
2022-10-22T19:02:00.601Z,3.47
2022-10-22T19:04:33.781Z,3.75
2022-10-22T19:07:01.714Z,3.42
2022-10-22T19:09:29.601Z,4.13
2022-10-22T19:11:57.310Z,3.33
2022-10-22T19:14:24.994Z,3.28
2022-10-22T19:16:52.811Z,3.45
2022-10-22T19:19:21.858Z,2.95
2022-10-22T19:21:50.470Z,3.85
2022-10-22T19:24:19.937Z,3.95
2022-10-22T19:26:48.682Z,3.63
2022-10-22T19:29:18.609Z,3.50
2022-10-22T19:31:47.757Z,3.67
2022-10-22T19:34:15.659Z,3.05
2022-10-22T19:36:43.442Z,3.15
2022-10-22T19:39:11.150Z,2.72
2022-10-22T19:41:38.915Z,2.92
2022-10-22T19:44:06.703Z,4.03
2022-10-22T19:46:34.879Z,2.95
2022-10-22T19:49:05.750Z,3.60
2022-10-22T19:51:34.625Z,3.22
2022-10-22T19:54:07.693Z,2.70
2022-10-22T19:56:37.931Z,2.53
2022-10-22T19:59:06.239Z,2.55
2022-10-22T20:01:34.145Z,2.70
2022-10-22T20:04:01.992Z,2.40
2022-10-22T20:06:30.264Z,2.28
2022-10-22T20:08:58.432Z,2.83
2022-10-22T20:11:28.456Z,2.55
2022-10-22T20:13:57.414Z,2.28
2022-10-22T20:16:28.725Z,2.53
2022-10-22T20:19:01.297Z,2.63
2022-10-22T20:21:29.745Z,2.78
2022-10-22T20:23:58.064Z,2.40
2022-10-22T20:26:28.510Z,2.72
2022-10-22T20:28:57.494Z,2.88
2022-10-22T20:31:28.098Z,2.40
2022-10-22T20:34:01.293Z,2.65
2022-10-22T20:36:30.377Z,3.20
2022-10-22T20:39:10.674Z,2.28
2022-10-22T20:41:40.624Z,2.60
2022-10-22T20:44:17.559Z,2.55
2022-10-22T20:46:45.697Z,2.15
2022-10-22T20:49:15.915Z,2.00
2022-10-22T20:51:44.159Z,2.83
2022-10-22T20:54:12.264Z,2.40
2022-10-22T20:56:40.661Z,2.25
2022-10-22T20:59:11.056Z,2.55
2022-10-22T21:01:45.036Z,2.42
2022-10-22T21:04:13.003Z,2.90
2022-10-22T21:06:43.101Z,2.97
2022-10-22T21:09:13.386Z,2.17
2022-10-22T21:11:42.294Z,2.22
2022-10-22T21:14:11.724Z,2.92
2022-10-22T21:16:49.536Z,2.50
2022-10-22T21:19:18.462Z,2.88
2022-10-22T21:21:46.185Z,2.80
2022-10-22T21:24:14.027Z,2.65
2022-10-22T21:26:42.992Z,2.42
2022-10-22T21:29:11.468Z,2.85
2022-10-22T21:31:40.567Z,2.88
2022-10-22T21:34:08.733Z,3.30
2022-10-22T21:36:36.754Z,3.25
2022-10-22T21:39:04.567Z,2.95
2022-10-22T21:41:32.414Z,3.05
2022-10-22T21:44:00.343Z,3.00
2022-10-22T21:46:28.667Z,2.72
2022-10-22T21:49:02.235Z,2.40
2022-10-22T21:51:32.247Z,3.13
2022-10-22T21:54:00.450Z,2.55
2022-10-22T21:56:36.035Z,2.40
2022-10-22T21:59:04.760Z,3.58
2022-10-22T22:01:32.978Z,2.55
2022-10-22T22:04:01.145Z,2.80
2022-10-22T22:06:33.144Z,2.88
2022-10-22T22:09:02.552Z,2.90
2022-10-22T22:11:30.771Z,3.42
2022-10-22T22:14:00.262Z,2.15
2022-10-22T22:16:30.662Z,3.05
2022-10-22T22:21:39.745Z,2.78
2022-10-22T22:24:08.666Z,3.28
2022-10-22T22:26:37.416Z,3.10
2022-10-22T22:29:05.717Z,2.28
2022-10-22T22:31:34.585Z,2.13
2022-10-22T22:34:13.031Z,3.05
2022-10-22T22:36:42.958Z,2.45
2022-10-22T22:39:16.516Z,2.25
2022-10-22T22:41:44.819Z,2.38
2022-10-22T22:44:13.249Z,2.45
2022-10-22T22:46:41.300Z,2.45
2022-10-22T22:49:09.592Z,2.53
2022-10-22T22:51:37.489Z,3.00
2022-10-22T22:54:05.260Z,2.40
2022-10-22T22:56:34.725Z,2.33
2022-10-22T22:59:04.295Z,2.30
2022-10-22T23:01:38.038Z,2.95
2022-10-22T23:04:13.374Z,2.30
2022-10-22T23:06:41.350Z,3.35
2022-10-22T23:09:11.865Z,2.97
2022-10-22T23:11:40.695Z,2.50
2022-10-22T23:14:10.310Z,2.80
2022-10-22T23:16:40.230Z,2.22
2022-10-22T23:19:08.684Z,2.65
2022-10-22T23:21:39.895Z,2.25
2022-10-22T23:24:10.770Z,1.90
2022-10-22T23:26:43.916Z,2.45
2022-10-22T23:29:14.701Z,2.60
2022-10-22T23:31:43.340Z,3.03
2022-10-22T23:34:12.745Z,2.33
2022-10-22T23:36:40.762Z,2.33
2022-10-22T23:39:10.778Z,2.25
2022-10-22T23:41:39.328Z,1.92
2022-10-22T23:44:08.740Z,2.60
2022-10-22T23:46:38.771Z,2.05
2022-10-22T23:49:08.253Z,2.47
2022-10-22T23:51:36.281Z,2.33
2022-10-22T23:54:06.158Z,2.47
2022-10-22T23:56:34.919Z,2.30
2022-10-22T23:59:03.277Z,2.08
